sensor_id;sensor_type;location;lat;lon;timestamp;P1;durP1;ratioP1;P2;durP2;ratioP2
13445;SDS011;6795;51.232;3.764;2022-08-21T00:00:40;8.15;;;4.97;;
13445;SDS011;6795;51.232;3.764;2022-08-21T00:03:10;11.30;;;5.63;;
13445;SDS011;6795;51.232;3.764;2022-08-21T00:05:43;11.10;;;5.22;;
13445;SDS011;6795;51.232;3.764;2022-08-21T00:08:13;8.15;;;5.65;;
13445;SDS011;6795;51.232;3.764;2022-08-21T00:10:41;11.93;;;5.93;;
13445;SDS011;6795;51.232;3.764;2022-08-21T00:13:11;10.82;;;6.07;;
13445;SDS011;6795;51.232;3.764;2022-08-21T00:15:44;11.15;;;5.57;;
13445;SDS011;6795;51.232;3.764;2022-08-21T00:18:12;9.57;;;5.82;;
13445;SDS011;6795;51.232;3.764;2022-08-21T00:20:44;8.75;;;5.95;;
13445;SDS011;6795;51.232;3.764;2022-08-21T00:23:13;17.23;;;5.95;;
13445;SDS011;6795;51.232;3.764;2022-08-21T00:25:42;13.15;;;6.13;;
13445;SDS011;6795;51.232;3.764;2022-08-21T00:28:11;10.00;;;5.47;;
13445;SDS011;6795;51.232;3.764;2022-08-21T00:30:41;13.77;;;5.82;;
13445;SDS011;6795;51.232;3.764;2022-08-21T00:33:09;9.45;;;5.72;;
13445;SDS011;6795;51.232;3.764;2022-08-21T00:35:40;15.18;;;5.95;;
13445;SDS011;6795;51.232;3.764;2022-08-21T00:38:10;14.05;;;6.43;;
13445;SDS011;6795;51.232;3.764;2022-08-21T00:40:41;14.20;;;5.35;;
13445;SDS011;6795;51.232;3.764;2022-08-21T00:43:14;10.65;;;6.22;;
13445;SDS011;6795;51.232;3.764;2022-08-21T00:45:47;9.48;;;6.40;;
13445;SDS011;6795;51.232;3.764;2022-08-21T00:48:15;9.52;;;5.95;;
13445;SDS011;6795;51.232;3.764;2022-08-21T00:50:46;12.15;;;6.57;;
13445;SDS011;6795;51.232;3.764;2022-08-21T00:53:19;13.18;;;5.75;;
13445;SDS011;6795;51.232;3.764;2022-08-21T00:55:49;13.43;;;5.35;;
13445;SDS011;6795;51.232;3.764;2022-08-21T00:58:21;15.07;;;6.43;;
13445;SDS011;6795;51.232;3.764;2022-08-21T01:00:51;11.18;;;5.78;;
13445;SDS011;6795;51.232;3.764;2022-08-21T01:03:21;10.85;;;5.18;;
13445;SDS011;6795;51.232;3.764;2022-08-21T01:05:51;9.82;;;5.65;;
13445;SDS011;6795;51.232;3.764;2022-08-21T01:08:22;9.02;;;5.60;;
13445;SDS011;6795;51.232;3.764;2022-08-21T01:10:51;10.63;;;5.13;;
13445;SDS011;6795;51.232;3.764;2022-08-21T01:13:20;10.73;;;5.32;;
13445;SDS011;6795;51.232;3.764;2022-08-21T01:15:51;11.35;;;5.25;;
13445;SDS011;6795;51.232;3.764;2022-08-21T01:18:22;8.40;;;4.68;;
13445;SDS011;6795;51.232;3.764;2022-08-21T01:21:02;10.10;;;4.90;;
13445;SDS011;6795;51.232;3.764;2022-08-21T01:23:34;12.07;;;5.45;;
13445;SDS011;6795;51.232;3.764;2022-08-21T01:26:04;15.02;;;5.38;;
13445;SDS011;6795;51.232;3.764;2022-08-21T01:28:36;12.68;;;4.75;;
13445;SDS011;6795;51.232;3.764;2022-08-21T01:31:09;17.38;;;5.63;;
13445;SDS011;6795;51.232;3.764;2022-08-21T01:33:43;10.10;;;5.22;;
13445;SDS011;6795;51.232;3.764;2022-08-21T01:36:13;10.82;;;4.93;;
13445;SDS011;6795;51.232;3.764;2022-08-21T01:38:41;10.07;;;4.47;;
13445;SDS011;6795;51.232;3.764;2022-08-21T01:41:10;10.60;;;4.97;;
13445;SDS011;6795;51.232;3.764;2022-08-21T01:43:38;13.73;;;4.38;;
13445;SDS011;6795;51.232;3.764;2022-08-21T01:46:06;7.80;;;5.07;;
13445;SDS011;6795;51.232;3.764;2022-08-21T01:48:35;7.75;;;5.13;;
13445;SDS011;6795;51.232;3.764;2022-08-21T01:51:04;10.25;;;4.80;;
13445;SDS011;6795;51.232;3.764;2022-08-21T01:53:34;11.05;;;4.45;;
13445;SDS011;6795;51.232;3.764;2022-08-21T01:56:03;9.52;;;4.55;;
13445;SDS011;6795;51.232;3.764;2022-08-21T01:58:38;9.40;;;4.57;;
13445;SDS011;6795;51.232;3.764;2022-08-21T02:01:06;8.25;;;4.47;;
13445;SDS011;6795;51.232;3.764;2022-08-21T02:03:35;8.05;;;4.30;;
13445;SDS011;6795;51.232;3.764;2022-08-21T02:06:05;12.32;;;5.00;;
13445;SDS011;6795;51.232;3.764;2022-08-21T02:08:36;10.90;;;4.43;;
13445;SDS011;6795;51.232;3.764;2022-08-21T02:11:05;9.70;;;4.28;;
13445;SDS011;6795;51.232;3.764;2022-08-21T02:13:34;12.63;;;4.70;;
13445;SDS011;6795;51.232;3.764;2022-08-21T02:16:02;11.10;;;4.68;;
13445;SDS011;6795;51.232;3.764;2022-08-21T02:18:31;11.38;;;5.25;;
13445;SDS011;6795;51.232;3.764;2022-08-21T02:20:59;19.83;;;5.68;;
13445;SDS011;6795;51.232;3.764;2022-08-21T02:23:28;16.52;;;5.75;;
13445;SDS011;6795;51.232;3.764;2022-08-21T02:25:57;9.48;;;5.70;;
13445;SDS011;6795;51.232;3.764;2022-08-21T02:28:27;12.38;;;5.55;;
13445;SDS011;6795;51.232;3.764;2022-08-21T02:30:56;12.55;;;6.05;;
13445;SDS011;6795;51.232;3.764;2022-08-21T02:33:24;9.25;;;5.28;;
13445;SDS011;6795;51.232;3.764;2022-08-21T02:35:53;10.48;;;5.43;;
13445;SDS011;6795;51.232;3.764;2022-08-21T02:38:24;13.23;;;5.20;;
13445;SDS011;6795;51.232;3.764;2022-08-21T02:40:54;12.45;;;5.13;;
13445;SDS011;6795;51.232;3.764;2022-08-21T02:43:25;12.30;;;5.05;;
13445;SDS011;6795;51.232;3.764;2022-08-21T02:45:55;8.07;;;3.95;;
13445;SDS011;6795;51.232;3.764;2022-08-21T02:48:25;13.00;;;4.70;;
13445;SDS011;6795;51.232;3.764;2022-08-21T02:50:56;8.70;;;4.70;;
13445;SDS011;6795;51.232;3.764;2022-08-21T02:53:26;10.55;;;4.72;;
13445;SDS011;6795;51.232;3.764;2022-08-21T02:55:56;9.68;;;3.90;;
13445;SDS011;6795;51.232;3.764;2022-08-21T02:58:27;8.13;;;3.65;;
13445;SDS011;6795;51.232;3.764;2022-08-21T03:00:57;8.77;;;3.92;;
13445;SDS011;6795;51.232;3.764;2022-08-21T03:03:26;10.88;;;3.50;;
13445;SDS011;6795;51.232;3.764;2022-08-21T03:05:55;12.38;;;3.92;;
13445;SDS011;6795;51.232;3.764;2022-08-21T03:08:24;5.95;;;3.47;;
13445;SDS011;6795;51.232;3.764;2022-08-21T03:10:53;8.73;;;4.18;;
13445;SDS011;6795;51.232;3.764;2022-08-21T03:13:22;13.50;;;3.35;;
13445;SDS011;6795;51.232;3.764;2022-08-21T03:15:52;10.82;;;3.95;;
13445;SDS011;6795;51.232;3.764;2022-08-21T03:18:23;9.40;;;3.63;;
13445;SDS011;6795;51.232;3.764;2022-08-21T03:20:52;9.95;;;3.50;;
13445;SDS011;6795;51.232;3.764;2022-08-21T03:23:20;12.30;;;3.83;;
13445;SDS011;6795;51.232;3.764;2022-08-21T03:25:49;5.50;;;2.50;;
13445;SDS011;6795;51.232;3.764;2022-08-21T03:28:20;10.50;;;2.70;;
13445;SDS011;6795;51.232;3.764;2022-08-21T03:30:50;7.50;;;2.40;;
13445;SDS011;6795;51.232;3.764;2022-08-21T03:33:20;9.32;;;2.55;;
13445;SDS011;6795;51.232;3.764;2022-08-21T03:35:52;10.73;;;2.22;;
13445;SDS011;6795;51.232;3.764;2022-08-21T03:38:27;9.18;;;2.50;;
13445;SDS011;6795;51.232;3.764;2022-08-21T03:40:57;7.82;;;2.25;;
13445;SDS011;6795;51.232;3.764;2022-08-21T03:43:26;10.77;;;2.80;;
13445;SDS011;6795;51.232;3.764;2022-08-21T03:46:01;6.85;;;2.20;;
13445;SDS011;6795;51.232;3.764;2022-08-21T03:48:32;6.53;;;3.00;;
13445;SDS011;6795;51.232;3.764;2022-08-21T03:51:02;7.60;;;2.15;;
13445;SDS011;6795;51.232;3.764;2022-08-21T03:53:31;10.57;;;2.25;;
13445;SDS011;6795;51.232;3.764;2022-08-21T03:56:00;8.40;;;2.42;;
13445;SDS011;6795;51.232;3.764;2022-08-21T03:58:28;12.38;;;2.30;;
13445;SDS011;6795;51.232;3.764;2022-08-21T04:00:58;9.27;;;2.17;;
13445;SDS011;6795;51.232;3.764;2022-08-21T04:03:29;8.40;;;2.42;;
13445;SDS011;6795;51.232;3.764;2022-08-21T04:05:57;12.85;;;2.45;;
13445;SDS011;6795;51.232;3.764;2022-08-21T04:08:25;7.85;;;2.35;;
13445;SDS011;6795;51.232;3.764;2022-08-21T04:10:55;10.65;;;2.58;;
13445;SDS011;6795;51.232;3.764;2022-08-21T04:13:25;11.80;;;2.38;;
13445;SDS011;6795;51.232;3.764;2022-08-21T04:15:55;11.07;;;3.72;;
13445;SDS011;6795;51.232;3.764;2022-08-21T04:18:24;11.57;;;2.85;;
13445;SDS011;6795;51.232;3.764;2022-08-21T04:20:54;10.10;;;1.98;;
13445;SDS011;6795;51.232;3.764;2022-08-21T04:23:24;10.05;;;2.55;;
13445;SDS011;6795;51.232;3.764;2022-08-21T04:25:53;13.13;;;2.95;;
13445;SDS011;6795;51.232;3.764;2022-08-21T04:28:24;7.00;;;2.80;;
13445;SDS011;6795;51.232;3.764;2022-08-21T04:30:55;8.40;;;3.00;;
13445;SDS011;6795;51.232;3.764;2022-08-21T04:33:25;4.88;;;2.35;;
13445;SDS011;6795;51.232;3.764;2022-08-21T04:35:54;10.77;;;2.80;;
13445;SDS011;6795;51.232;3.764;2022-08-21T04:38:23;9.70;;;3.15;;
13445;SDS011;6795;51.232;3.764;2022-08-21T04:40:53;6.78;;;2.97;;
13445;SDS011;6795;51.232;3.764;2022-08-21T04:43:21;9.43;;;3.10;;
13445;SDS011;6795;51.232;3.764;2022-08-21T04:45:55;9.82;;;3.35;;
13445;SDS011;6795;51.232;3.764;2022-08-21T04:48:23;18.80;;;3.67;;
13445;SDS011;6795;51.232;3.764;2022-08-21T04:50:53;11.98;;;2.63;;
13445;SDS011;6795;51.232;3.764;2022-08-21T04:53:28;8.60;;;3.38;;
13445;SDS011;6795;51.232;3.764;2022-08-21T04:56:02;15.25;;;2.78;;
13445;SDS011;6795;51.232;3.764;2022-08-21T04:58:35;12.75;;;3.55;;
13445;SDS011;6795;51.232;3.764;2022-08-21T05:01:07;9.02;;;2.83;;
13445;SDS011;6795;51.232;3.764;2022-08-21T05:03:39;10.68;;;3.50;;
13445;SDS011;6795;51.232;3.764;2022-08-21T05:06:09;9.15;;;3.38;;
13445;SDS011;6795;51.232;3.764;2022-08-21T05:08:39;8.32;;;3.33;;
13445;SDS011;6795;51.232;3.764;2022-08-21T05:11:09;9.25;;;3.20;;
13445;SDS011;6795;51.232;3.764;2022-08-21T05:13:38;11.15;;;4.20;;
13445;SDS011;6795;51.232;3.764;2022-08-21T05:16:09;11.45;;;4.13;;
13445;SDS011;6795;51.232;3.764;2022-08-21T05:18:37;13.68;;;4.25;;
13445;SDS011;6795;51.232;3.764;2022-08-21T05:21:06;7.63;;;3.55;;
13445;SDS011;6795;51.232;3.764;2022-08-21T05:23:37;12.00;;;3.42;;
13445;SDS011;6795;51.232;3.764;2022-08-21T05:26:05;13.73;;;3.72;;
13445;SDS011;6795;51.232;3.764;2022-08-21T05:28:43;13.75;;;3.53;;
13445;SDS011;6795;51.232;3.764;2022-08-21T05:31:12;12.27;;;3.38;;
13445;SDS011;6795;51.232;3.764;2022-08-21T05:33:40;7.43;;;2.90;;
13445;SDS011;6795;51.232;3.764;2022-08-21T05:36:10;13.15;;;3.25;;
13445;SDS011;6795;51.232;3.764;2022-08-21T05:38:39;8.98;;;2.90;;
13445;SDS011;6795;51.232;3.764;2022-08-21T05:41:07;9.23;;;3.35;;
13445;SDS011;6795;51.232;3.764;2022-08-21T05:43:35;8.25;;;2.33;;
13445;SDS011;6795;51.232;3.764;2022-08-21T05:46:04;5.97;;;1.98;;
13445;SDS011;6795;51.232;3.764;2022-08-21T05:48:34;10.98;;;2.58;;
13445;SDS011;6795;51.232;3.764;2022-08-21T05:51:04;6.75;;;2.05;;
13445;SDS011;6795;51.232;3.764;2022-08-21T05:53:36;6.93;;;2.33;;
13445;SDS011;6795;51.232;3.764;2022-08-21T05:56:04;4.70;;;1.92;;
13445;SDS011;6795;51.232;3.764;2022-08-21T05:58:33;5.65;;;2.45;;
13445;SDS011;6795;51.232;3.764;2022-08-21T06:01:02;5.93;;;1.67;;
13445;SDS011;6795;51.232;3.764;2022-08-21T06:03:33;3.47;;;1.88;;
13445;SDS011;6795;51.232;3.764;2022-08-21T06:06:03;6.57;;;1.88;;
13445;SDS011;6795;51.232;3.764;2022-08-21T06:08:32;13.32;;;3.47;;
13445;SDS011;6795;51.232;3.764;2022-08-21T06:11:02;5.93;;;2.00;;
13445;SDS011;6795;51.232;3.764;2022-08-21T06:13:31;6.70;;;1.88;;
13445;SDS011;6795;51.232;3.764;2022-08-21T06:16:00;9.00;;;2.17;;
13445;SDS011;6795;51.232;3.764;2022-08-21T06:18:30;7.70;;;2.30;;
13445;SDS011;6795;51.232;3.764;2022-08-21T06:20:59;7.78;;;1.98;;
13445;SDS011;6795;51.232;3.764;2022-08-21T06:23:27;7.32;;;2.47;;
13445;SDS011;6795;51.232;3.764;2022-08-21T06:25:59;7.25;;;2.00;;
13445;SDS011;6795;51.232;3.764;2022-08-21T06:28:28;7.43;;;1.75;;
13445;SDS011;6795;51.232;3.764;2022-08-21T06:30:57;10.15;;;2.60;;
13445;SDS011;6795;51.232;3.764;2022-08-21T06:33:25;8.93;;;2.40;;
13445;SDS011;6795;51.232;3.764;2022-08-21T06:35:58;6.50;;;2.53;;
13445;SDS011;6795;51.232;3.764;2022-08-21T06:38:26;8.52;;;2.65;;
13445;SDS011;6795;51.232;3.764;2022-08-21T06:40:54;6.35;;;2.25;;
13445;SDS011;6795;51.232;3.764;2022-08-21T06:43:23;4.72;;;2.15;;
13445;SDS011;6795;51.232;3.764;2022-08-21T06:46:06;7.20;;;2.50;;
13445;SDS011;6795;51.232;3.764;2022-08-21T06:48:36;6.05;;;2.35;;
13445;SDS011;6795;51.232;3.764;2022-08-21T06:51:04;6.38;;;2.13;;
13445;SDS011;6795;51.232;3.764;2022-08-21T06:53:32;5.78;;;2.03;;
13445;SDS011;6795;51.232;3.764;2022-08-21T06:56:01;6.35;;;1.73;;
13445;SDS011;6795;51.232;3.764;2022-08-21T06:58:29;6.00;;;2.28;;
13445;SDS011;6795;51.232;3.764;2022-08-21T07:00:58;8.70;;;2.63;;
13445;SDS011;6795;51.232;3.764;2022-08-21T07:03:29;5.72;;;1.95;;
13445;SDS011;6795;51.232;3.764;2022-08-21T07:06:00;5.38;;;1.92;;
13445;SDS011;6795;51.232;3.764;2022-08-21T07:08:28;4.78;;;2.10;;
13445;SDS011;6795;51.232;3.764;2022-08-21T07:10:58;9.80;;;2.53;;
13445;SDS011;6795;51.232;3.764;2022-08-21T07:13:28;7.43;;;2.80;;
13445;SDS011;6795;51.232;3.764;2022-08-21T07:15:56;9.18;;;3.08;;
13445;SDS011;6795;51.232;3.764;2022-08-21T07:18:30;8.60;;;2.88;;
13445;SDS011;6795;51.232;3.764;2022-08-21T07:21:02;7.45;;;2.90;;
13445;SDS011;6795;51.232;3.764;2022-08-21T07:23:32;11.02;;;3.05;;
13445;SDS011;6795;51.232;3.764;2022-08-21T07:26:02;7.85;;;2.30;;
13445;SDS011;6795;51.232;3.764;2022-08-21T07:28:32;5.35;;;3.03;;
13445;SDS011;6795;51.232;3.764;2022-08-21T07:31:00;9.45;;;3.03;;
13445;SDS011;6795;51.232;3.764;2022-08-21T07:33:33;7.85;;;2.38;;
13445;SDS011;6795;51.232;3.764;2022-08-21T07:36:02;7.50;;;2.33;;
13445;SDS011;6795;51.232;3.764;2022-08-21T07:38:32;8.15;;;2.75;;
13445;SDS011;6795;51.232;3.764;2022-08-21T07:41:00;9.70;;;2.97;;
13445;SDS011;6795;51.232;3.764;2022-08-21T07:43:29;8.38;;;3.10;;
13445;SDS011;6795;51.232;3.764;2022-08-21T07:45:58;5.88;;;2.45;;
13445;SDS011;6795;51.232;3.764;2022-08-21T07:48:27;8.57;;;3.00;;
13445;SDS011;6795;51.232;3.764;2022-08-21T07:50:57;5.95;;;2.78;;
13445;SDS011;6795;51.232;3.764;2022-08-21T07:53:30;8.52;;;2.67;;
13445;SDS011;6795;51.232;3.764;2022-08-21T07:55:59;12.65;;;2.75;;
13445;SDS011;6795;51.232;3.764;2022-08-21T07:58:27;11.93;;;3.10;;
13445;SDS011;6795;51.232;3.764;2022-08-21T08:00:55;7.22;;;2.83;;
13445;SDS011;6795;51.232;3.764;2022-08-21T08:03:24;9.27;;;2.83;;
13445;SDS011;6795;51.232;3.764;2022-08-21T08:05:54;7.57;;;2.70;;
13445;SDS011;6795;51.232;3.764;2022-08-21T08:08:25;7.00;;;2.58;;
13445;SDS011;6795;51.232;3.764;2022-08-21T08:10:55;5.97;;;3.00;;
13445;SDS011;6795;51.232;3.764;2022-08-21T08:13:25;7.25;;;2.15;;
13445;SDS011;6795;51.232;3.764;2022-08-21T08:15:53;6.78;;;2.47;;
13445;SDS011;6795;51.232;3.764;2022-08-21T08:18:21;5.63;;;1.70;;
13445;SDS011;6795;51.232;3.764;2022-08-21T08:20:50;7.18;;;2.33;;
13445;SDS011;6795;51.232;3.764;2022-08-21T08:23:19;8.77;;;2.63;;
13445;SDS011;6795;51.232;3.764;2022-08-21T08:25:49;8.38;;;2.88;;
13445;SDS011;6795;51.232;3.764;2022-08-21T08:28:17;3.13;;;1.60;;
13445;SDS011;6795;51.232;3.764;2022-08-21T08:30:46;12.40;;;2.90;;
13445;SDS011;6795;51.232;3.764;2022-08-21T08:33:16;8.18;;;2.17;;
13445;SDS011;6795;51.232;3.764;2022-08-21T08:35:45;9.63;;;2.35;;
13445;SDS011;6795;51.232;3.764;2022-08-21T08:38:16;8.15;;;2.50;;
13445;SDS011;6795;51.232;3.764;2022-08-21T08:40:52;9.23;;;1.95;;
13445;SDS011;6795;51.232;3.764;2022-08-21T08:43:27;7.13;;;2.08;;
13445;SDS011;6795;51.232;3.764;2022-08-21T08:45:57;8.82;;;1.25;;
13445;SDS011;6795;51.232;3.764;2022-08-21T08:48:31;12.13;;;1.65;;
13445;SDS011;6795;51.232;3.764;2022-08-21T08:51:19;9.18;;;2.10;;
13445;SDS011;6795;51.232;3.764;2022-08-21T08:53:59;9.23;;;3.03;;
13445;SDS011;6795;51.232;3.764;2022-08-21T08:56:32;9.32;;;2.78;;
13445;SDS011;6795;51.232;3.764;2022-08-21T08:59:07;8.65;;;3.50;;
13445;SDS011;6795;51.232;3.764;2022-08-21T09:01:43;11.40;;;2.30;;
13445;SDS011;6795;51.232;3.764;2022-08-21T09:04:11;7.30;;;2.42;;
13445;SDS011;6795;51.232;3.764;2022-08-21T09:06:57;5.82;;;1.70;;
13445;SDS011;6795;51.232;3.764;2022-08-21T09:09:38;6.80;;;1.77;;
13445;SDS011;6795;51.232;3.764;2022-08-21T09:12:31;5.30;;;1.20;;
13445;SDS011;6795;51.232;3.764;2022-08-21T09:15:09;6.88;;;4.00;;
13445;SDS011;6795;51.232;3.764;2022-08-21T09:17:59;12.43;;;8.73;;
13445;SDS011;6795;51.232;3.764;2022-08-21T09:20:56;4.18;;;1.83;;
13445;SDS011;6795;51.232;3.764;2022-08-21T09:23:38;7.78;;;1.83;;
13445;SDS011;6795;51.232;3.764;2022-08-21T09:26:15;5.15;;;1.10;;
13445;SDS011;6795;51.232;3.764;2022-08-21T09:28:46;5.35;;;0.95;;
13445;SDS011;6795;51.232;3.764;2022-08-21T09:31:22;4.65;;;1.88;;
13445;SDS011;6795;51.232;3.764;2022-08-21T09:33:56;6.90;;;1.48;;
13445;SDS011;6795;51.232;3.764;2022-08-21T09:36:29;10.82;;;1.30;;
13445;SDS011;6795;51.232;3.764;2022-08-21T09:39:03;5.55;;;0.98;;
13445;SDS011;6795;51.232;3.764;2022-08-21T09:41:32;9.43;;;1.05;;
13445;SDS011;6795;51.232;3.764;2022-08-21T09:44:05;7.65;;;1.40;;
13445;SDS011;6795;51.232;3.764;2022-08-21T09:46:34;3.67;;;0.95;;
13445;SDS011;6795;51.232;3.764;2022-08-21T09:49:03;4.43;;;0.80;;
13445;SDS011;6795;51.232;3.764;2022-08-21T09:51:38;6.03;;;0.90;;
13445;SDS011;6795;51.232;3.764;2022-08-21T09:54:18;6.68;;;1.02;;
13445;SDS011;6795;51.232;3.764;2022-08-21T09:56:53;4.03;;;0.60;;
13445;SDS011;6795;51.232;3.764;2022-08-21T09:59:42;7.35;;;1.42;;
13445;SDS011;6795;51.232;3.764;2022-08-21T10:05:00;5.22;;;0.90;;
13445;SDS011;6795;51.232;3.764;2022-08-21T10:07:31;5.97;;;1.13;;
13445;SDS011;6795;51.232;3.764;2022-08-21T10:10:04;5.75;;;0.85;;
13445;SDS011;6795;51.232;3.764;2022-08-21T10:12:39;4.32;;;0.80;;
13445;SDS011;6795;51.232;3.764;2022-08-21T10:15:18;7.00;;;0.80;;
13445;SDS011;6795;51.232;3.764;2022-08-21T10:17:53;4.75;;;1.02;;
13445;SDS011;6795;51.232;3.764;2022-08-21T10:20:28;5.40;;;0.93;;
13445;SDS011;6795;51.232;3.764;2022-08-21T10:23:07;7.25;;;0.90;;
13445;SDS011;6795;51.232;3.764;2022-08-21T10:25:49;7.22;;;1.27;;
13445;SDS011;6795;51.232;3.764;2022-08-21T10:28:41;4.78;;;0.65;;
13445;SDS011;6795;51.232;3.764;2022-08-21T10:31:18;4.70;;;0.90;;
13445;SDS011;6795;51.232;3.764;2022-08-21T10:34:03;5.20;;;0.90;;
13445;SDS011;6795;51.232;3.764;2022-08-21T10:36:42;3.88;;;0.80;;
13445;SDS011;6795;51.232;3.764;2022-08-21T10:39:18;5.28;;;0.63;;
13445;SDS011;6795;51.232;3.764;2022-08-21T10:42:14;6.95;;;0.70;;
13445;SDS011;6795;51.232;3.764;2022-08-21T10:44:58;6.38;;;1.20;;
13445;SDS011;6795;51.232;3.764;2022-08-21T10:47:46;5.03;;;1.13;;
13445;SDS011;6795;51.232;3.764;2022-08-21T10:50:27;5.60;;;0.77;;
13445;SDS011;6795;51.232;3.764;2022-08-21T10:53:07;8.13;;;1.58;;
13445;SDS011;6795;51.232;3.764;2022-08-21T10:55:50;4.38;;;0.80;;
13445;SDS011;6795;51.232;3.764;2022-08-21T10:58:24;7.75;;;0.75;;
13445;SDS011;6795;51.232;3.764;2022-08-21T11:00:56;4.72;;;0.70;;
13445;SDS011;6795;51.232;3.764;2022-08-21T11:03:33;1.55;;;0.65;;
13445;SDS011;6795;51.232;3.764;2022-08-21T11:06:08;4.10;;;1.00;;
13445;SDS011;6795;51.232;3.764;2022-08-21T11:08:43;4.18;;;0.80;;
13445;SDS011;6795;51.232;3.764;2022-08-21T11:11:14;7.40;;;0.75;;
13445;SDS011;6795;51.232;3.764;2022-08-21T11:13:49;5.25;;;0.70;;
13445;SDS011;6795;51.232;3.764;2022-08-21T11:16:23;5.18;;;1.15;;
13445;SDS011;6795;51.232;3.764;2022-08-21T11:19:02;6.22;;;1.58;;
13445;SDS011;6795;51.232;3.764;2022-08-21T11:21:37;3.45;;;1.45;;
13445;SDS011;6795;51.232;3.764;2022-08-21T11:24:15;4.22;;;1.42;;
13445;SDS011;6795;51.232;3.764;2022-08-21T11:26:52;3.85;;;0.55;;
13445;SDS011;6795;51.232;3.764;2022-08-21T11:29:28;4.15;;;0.65;;
13445;SDS011;6795;51.232;3.764;2022-08-21T11:32:01;3.78;;;0.70;;
13445;SDS011;6795;51.232;3.764;2022-08-21T11:34:54;3.55;;;0.70;;
13445;SDS011;6795;51.232;3.764;2022-08-21T11:37:35;5.55;;;0.70;;
13445;SDS011;6795;51.232;3.764;2022-08-21T11:40:27;4.88;;;0.90;;
13445;SDS011;6795;51.232;3.764;2022-08-21T11:43:08;2.72;;;0.60;;
13445;SDS011;6795;51.232;3.764;2022-08-21T11:45:43;3.50;;;0.70;;
13445;SDS011;6795;51.232;3.764;2022-08-21T11:48:28;2.95;;;0.50;;
13445;SDS011;6795;51.232;3.764;2022-08-21T11:51:10;4.78;;;0.70;;
13445;SDS011;6795;51.232;3.764;2022-08-21T11:53:44;4.18;;;0.60;;
13445;SDS011;6795;51.232;3.764;2022-08-21T11:56:20;4.88;;;1.00;;
13445;SDS011;6795;51.232;3.764;2022-08-21T11:58:54;2.88;;;0.85;;
13445;SDS011;6795;51.232;3.764;2022-08-21T12:01:31;4.80;;;0.90;;
13445;SDS011;6795;51.232;3.764;2022-08-21T12:04:03;6.63;;;1.05;;
13445;SDS011;6795;51.232;3.764;2022-08-21T12:06:37;3.42;;;0.50;;
13445;SDS011;6795;51.232;3.764;2022-08-21T12:09:06;4.00;;;0.85;;
13445;SDS011;6795;51.232;3.764;2022-08-21T12:11:45;5.63;;;1.10;;
13445;SDS011;6795;51.232;3.764;2022-08-21T12:14:16;4.13;;;0.63;;
13445;SDS011;6795;51.232;3.764;2022-08-21T12:16:46;5.70;;;0.70;;
13445;SDS011;6795;51.232;3.764;2022-08-21T12:19:28;4.65;;;0.70;;
13445;SDS011;6795;51.232;3.764;2022-08-21T12:22:06;3.17;;;0.70;;
13445;SDS011;6795;51.232;3.764;2022-08-21T12:24:39;7.28;;;1.00;;
13445;SDS011;6795;51.232;3.764;2022-08-21T12:27:20;5.38;;;1.02;;
13445;SDS011;6795;51.232;3.764;2022-08-21T12:29:53;3.10;;;0.60;;
13445;SDS011;6795;51.232;3.764;2022-08-21T12:32:24;4.88;;;0.77;;
13445;SDS011;6795;51.232;3.764;2022-08-21T12:34:55;5.03;;;0.90;;
13445;SDS011;6795;51.232;3.764;2022-08-21T12:37:38;8.20;;;0.90;;
13445;SDS011;6795;51.232;3.764;2022-08-21T12:40:10;5.82;;;0.80;;
13445;SDS011;6795;51.232;3.764;2022-08-21T12:42:46;4.75;;;0.55;;
13445;SDS011;6795;51.232;3.764;2022-08-21T12:45:26;2.17;;;0.60;;
13445;SDS011;6795;51.232;3.764;2022-08-21T12:47:59;5.30;;;0.80;;
13445;SDS011;6795;51.232;3.764;2022-08-21T12:50:35;4.57;;;0.75;;
13445;SDS011;6795;51.232;3.764;2022-08-21T12:53:08;5.85;;;0.73;;
13445;SDS011;6795;51.232;3.764;2022-08-21T12:55:46;4.72;;;0.70;;
13445;SDS011;6795;51.232;3.764;2022-08-21T12:58:18;5.45;;;0.70;;
13445;SDS011;6795;51.232;3.764;2022-08-21T13:00:47;3.50;;;0.90;;
13445;SDS011;6795;51.232;3.764;2022-08-21T13:03:17;2.65;;;0.60;;
13445;SDS011;6795;51.232;3.764;2022-08-21T13:05:46;3.40;;;0.80;;
13445;SDS011;6795;51.232;3.764;2022-08-21T13:08:19;5.80;;;0.98;;
13445;SDS011;6795;51.232;3.764;2022-08-21T13:10:49;3.33;;;0.55;;
13445;SDS011;6795;51.232;3.764;2022-08-21T13:13:36;4.63;;;0.70;;
13445;SDS011;6795;51.232;3.764;2022-08-21T13:16:12;5.57;;;0.90;;
13445;SDS011;6795;51.232;3.764;2022-08-21T13:18:54;2.38;;;0.77;;
13445;SDS011;6795;51.232;3.764;2022-08-21T13:21:27;5.57;;;0.88;;
13445;SDS011;6795;51.232;3.764;2022-08-21T13:24:15;3.78;;;1.00;;
13445;SDS011;6795;51.232;3.764;2022-08-21T13:27:14;8.07;;;1.13;;
13445;SDS011;6795;51.232;3.764;2022-08-21T13:29:47;5.82;;;0.60;;
13445;SDS011;6795;51.232;3.764;2022-08-21T13:32:21;3.38;;;0.70;;
13445;SDS011;6795;51.232;3.764;2022-08-21T13:34:58;5.22;;;0.60;;
13445;SDS011;6795;51.232;3.764;2022-08-21T13:37:35;4.63;;;0.70;;
13445;SDS011;6795;51.232;3.764;2022-08-21T13:40:09;5.28;;;1.13;;
13445;SDS011;6795;51.232;3.764;2022-08-21T13:42:40;5.90;;;1.02;;
13445;SDS011;6795;51.232;3.764;2022-08-21T13:45:11;6.85;;;1.10;;
13445;SDS011;6795;51.232;3.764;2022-08-21T13:47:46;2.95;;;0.60;;
13445;SDS011;6795;51.232;3.764;2022-08-21T13:50:16;7.20;;;1.40;;
13445;SDS011;6795;51.232;3.764;2022-08-21T13:52:53;8.82;;;1.42;;
13445;SDS011;6795;51.232;3.764;2022-08-21T13:55:26;4.18;;;0.75;;
13445;SDS011;6795;51.232;3.764;2022-08-21T13:58:04;4.00;;;0.80;;
13445;SDS011;6795;51.232;3.764;2022-08-21T14:00:34;5.35;;;1.25;;
13445;SDS011;6795;51.232;3.764;2022-08-21T14:03:10;5.25;;;1.50;;
13445;SDS011;6795;51.232;3.764;2022-08-21T14:05:50;6.60;;;1.90;;
13445;SDS011;6795;51.232;3.764;2022-08-21T14:08:20;5.05;;;0.85;;
13445;SDS011;6795;51.232;3.764;2022-08-21T14:10:57;6.25;;;1.05;;
13445;SDS011;6795;51.232;3.764;2022-08-21T14:13:34;4.72;;;0.63;;
13445;SDS011;6795;51.232;3.764;2022-08-21T14:16:10;1.77;;;0.60;;
13445;SDS011;6795;51.232;3.764;2022-08-21T14:18:44;8.52;;;1.17;;
13445;SDS011;6795;51.232;3.764;2022-08-21T14:21:22;6.07;;;0.90;;
13445;SDS011;6795;51.232;3.764;2022-08-21T14:23:58;6.18;;;1.75;;
13445;SDS011;6795;51.232;3.764;2022-08-21T14:26:31;6.30;;;1.13;;
13445;SDS011;6795;51.232;3.764;2022-08-21T14:29:02;5.05;;;0.90;;
13445;SDS011;6795;51.232;3.764;2022-08-21T14:31:36;5.47;;;1.15;;
13445;SDS011;6795;51.232;3.764;2022-08-21T14:34:09;6.82;;;1.88;;
13445;SDS011;6795;51.232;3.764;2022-08-21T14:36:45;6.28;;;0.93;;
13445;SDS011;6795;51.232;3.764;2022-08-21T14:39:14;5.47;;;0.77;;
13445;SDS011;6795;51.232;3.764;2022-08-21T14:41:43;5.10;;;0.77;;
13445;SDS011;6795;51.232;3.764;2022-08-21T14:44:14;5.60;;;0.77;;
13445;SDS011;6795;51.232;3.764;2022-08-21T14:46:44;4.78;;;0.68;;
13445;SDS011;6795;51.232;3.764;2022-08-21T14:49:22;5.05;;;1.10;;
13445;SDS011;6795;51.232;3.764;2022-08-21T14:51:53;4.45;;;0.98;;
13445;SDS011;6795;51.232;3.764;2022-08-21T14:54:24;6.30;;;0.90;;
13445;SDS011;6795;51.232;3.764;2022-08-21T14:56:59;4.32;;;0.80;;
13445;SDS011;6795;51.232;3.764;2022-08-21T14:59:29;6.63;;;1.08;;
13445;SDS011;6795;51.232;3.764;2022-08-21T15:01:59;7.70;;;1.08;;
13445;SDS011;6795;51.232;3.764;2022-08-21T15:04:29;7.30;;;0.85;;
13445;SDS011;6795;51.232;3.764;2022-08-21T15:06:57;5.40;;;1.48;;
13445;SDS011;6795;51.232;3.764;2022-08-21T15:09:26;5.30;;;0.82;;
13445;SDS011;6795;51.232;3.764;2022-08-21T15:11:55;6.72;;;0.95;;
13445;SDS011;6795;51.232;3.764;2022-08-21T15:14:27;2.92;;;0.60;;
13445;SDS011;6795;51.232;3.764;2022-08-21T15:16:57;8.20;;;1.10;;
13445;SDS011;6795;51.232;3.764;2022-08-21T15:19:25;2.47;;;0.60;;
13445;SDS011;6795;51.232;3.764;2022-08-21T15:21:55;2.63;;;0.73;;
13445;SDS011;6795;51.232;3.764;2022-08-21T15:24:23;6.63;;;1.00;;
13445;SDS011;6795;51.232;3.764;2022-08-21T15:26:52;5.40;;;0.77;;
13445;SDS011;6795;51.232;3.764;2022-08-21T15:29:21;3.85;;;0.65;;
13445;SDS011;6795;51.232;3.764;2022-08-21T15:31:59;3.15;;;0.70;;